sensor_id;sensor_type;location;lat;lon;timestamp;pressure;altitude;pressure_sealevel;temperature;humidity
61710;BME280;47633;51.494;5.386;2022-07-10T00:00:17;102705.00;;;22.70;44.09
61710;BME280;47633;51.494;5.386;2022-07-10T00:02:45;102708.72;;;22.68;44.20
61710;BME280;47633;51.494;5.386;2022-07-10T00:05:11;102706.16;;;22.66;44.03
61710;BME280;47633;51.494;5.386;2022-07-10T00:07:37;102712.41;;;22.65;44.00
61710;BME280;47633;51.494;5.386;2022-07-10T00:10:03;102711.78;;;22.61;44.00
61710;BME280;47633;51.494;5.386;2022-07-10T00:12:28;102707.31;;;22.62;44.16
61710;BME280;47633;51.494;5.386;2022-07-10T00:14:54;102715.41;;;22.60;44.15
61710;BME280;47633;51.494;5.386;2022-07-10T00:17:19;102713.72;;;22.59;43.94
61710;BME280;47633;51.494;5.386;2022-07-10T00:19:44;102708.41;;;22.59;44.04
61710;BME280;47633;51.494;5.386;2022-07-10T00:22:11;102706.69;;;22.58;43.80
61710;BME280;47633;51.494;5.386;2022-07-10T00:24:36;102707.56;;;22.59;44.05
61710;BME280;47633;51.494;5.386;2022-07-10T00:27:02;102707.69;;;22.57;43.96
61710;BME280;47633;51.494;5.386;2022-07-10T00:29:27;102707.69;;;22.57;43.72
61710;BME280;47633;51.494;5.386;2022-07-10T00:31:52;102707.03;;;22.54;44.25
61710;BME280;47633;51.494;5.386;2022-07-10T00:34:18;102706.06;;;22.55;43.93
61710;BME280;47633;51.494;5.386;2022-07-10T00:36:43;102708.84;;;22.53;44.11
61710;BME280;47633;51.494;5.386;2022-07-10T00:39:09;102713.31;;;22.53;44.11
61710;BME280;47633;51.494;5.386;2022-07-10T00:41:34;102694.84;;;22.51;43.75
61710;BME280;47633;51.494;5.386;2022-07-10T00:44:03;102693.97;;;22.51;43.86
61710;BME280;47633;51.494;5.386;2022-07-10T00:46:30;102693.22;;;22.49;44.00
61710;BME280;47633;51.494;5.386;2022-07-10T00:48:56;102687.19;;;22.46;43.72
61710;BME280;47633;51.494;5.386;2022-07-10T00:51:25;102690.56;;;22.49;44.18
61710;BME280;47633;51.494;5.386;2022-07-10T00:53:51;102695.16;;;22.46;43.90
61710;BME280;47633;51.494;5.386;2022-07-10T00:56:18;102695.16;;;22.46;43.78
61710;BME280;47633;51.494;5.386;2022-07-10T00:58:45;102693.44;;;22.45;43.89
61710;BME280;47633;51.494;5.386;2022-07-10T01:01:11;102678.56;;;22.43;44.17
61710;BME280;47633;51.494;5.386;2022-07-10T01:03:36;102682.09;;;22.43;43.84
61710;BME280;47633;51.494;5.386;2022-07-10T01:06:02;102677.81;;;22.41;43.76
61710;BME280;47633;51.494;5.386;2022-07-10T01:08:28;102681.22;;;22.43;43.90
61710;BME280;47633;51.494;5.386;2022-07-10T01:10:53;102671.78;;;22.39;44.26
61710;BME280;47633;51.494;5.386;2022-07-10T01:13:19;102672.50;;;22.41;44.02
61710;BME280;47633;51.494;5.386;2022-07-10T01:15:45;102666.47;;;22.39;44.09
61710;BME280;47633;51.494;5.386;2022-07-10T01:18:12;102662.00;;;22.39;43.82
61710;BME280;47633;51.494;5.386;2022-07-10T01:20:38;102667.19;;;22.41;44.26
61710;BME280;47633;51.494;5.386;2022-07-10T01:23:03;102662.00;;;22.39;44.22
61710;BME280;47633;51.494;5.386;2022-07-10T01:25:28;102655.84;;;22.39;43.95
61710;BME280;47633;51.494;5.386;2022-07-10T01:27:54;102652.34;;;22.38;44.03
61710;BME280;47633;51.494;5.386;2022-07-10T01:30:19;102655.84;;;22.39;44.16
61710;BME280;47633;51.494;5.386;2022-07-10T01:32:46;102649.69;;;22.38;44.21
61710;BME280;47633;51.494;5.386;2022-07-10T01:35:11;102647.97;;;22.37;44.26
61710;BME280;47633;51.494;5.386;2022-07-10T01:37:38;102648.81;;;22.38;44.01
61710;BME280;47633;51.494;5.386;2022-07-10T01:40:04;102644.59;;;22.35;43.88
61710;BME280;47633;51.494;5.386;2022-07-10T01:42:29;102642.88;;;22.34;44.29
61710;BME280;47633;51.494;5.386;2022-07-10T01:44:55;102647.25;;;22.35;44.23
61710;BME280;47633;51.494;5.386;2022-07-10T01:47:20;102643.72;;;22.35;44.25
61710;BME280;47633;51.494;5.386;2022-07-10T01:49:52;102650.03;;;22.34;43.98
61710;BME280;47633;51.494;5.386;2022-07-10T01:52:20;102650.03;;;22.34;44.33
61710;BME280;47633;51.494;5.386;2022-07-10T01:54:47;102650.13;;;22.32;44.19
61710;BME280;47633;51.494;5.386;2022-07-10T01:57:12;102644.81;;;22.32;44.17
61710;BME280;47633;51.494;5.386;2022-07-10T01:59:38;102650.97;;;22.33;44.03
61710;BME280;47633;51.494;5.386;2022-07-10T02:02:04;102658.09;;;22.32;44.11
61710;BME280;47633;51.494;5.386;2022-07-10T02:04:29;102655.44;;;22.32;44.19
61710;BME280;47633;51.494;5.386;2022-07-10T02:07:14;102651.06;;;22.31;44.24
61710;BME280;47633;51.494;5.386;2022-07-10T02:09:41;102652.88;;;22.31;44.31
61710;BME280;47633;51.494;5.386;2022-07-10T02:12:12;102652.97;;;22.29;43.91
61710;BME280;47633;51.494;5.386;2022-07-10T02:14:38;102649.44;;;22.28;44.05
61710;BME280;47633;51.494;5.386;2022-07-10T02:17:06;102651.25;;;22.28;44.28
61710;BME280;47633;51.494;5.386;2022-07-10T02:19:31;102652.22;;;22.27;44.09
61710;BME280;47633;51.494;5.386;2022-07-10T02:21:57;102654.03;;;22.26;44.09
61710;BME280;47633;51.494;5.386;2022-07-10T02:24:23;102643.50;;;22.25;44.00
61710;BME280;47633;51.494;5.386;2022-07-10T02:26:48;102646.28;;;22.23;44.23
61710;BME280;47633;51.494;5.386;2022-07-10T02:29:14;102644.47;;;22.24;44.29
61710;BME280;47633;51.494;5.386;2022-07-10T02:31:39;102649.78;;;22.24;44.10
61710;BME280;47633;51.494;5.386;2022-07-10T02:34:08;102645.53;;;22.21;44.06
61710;BME280;47633;51.494;5.386;2022-07-10T02:36:34;102644.59;;;22.22;43.97
61710;BME280;47633;51.494;5.386;2022-07-10T02:38:59;102642.03;;;22.21;44.37
61710;BME280;47633;51.494;5.386;2022-07-10T02:41:24;102643.72;;;22.22;44.10
61710;BME280;47633;51.494;5.386;2022-07-10T02:43:50;102647.34;;;22.21;44.08
61710;BME280;47633;51.494;5.386;2022-07-10T02:46:15;102643.00;;;22.20;44.25
61710;BME280;47633;51.494;5.386;2022-07-10T02:48:40;102646.59;;;22.19;44.33
61710;BME280;47633;51.494;5.386;2022-07-10T02:51:05;102645.75;;;22.18;44.15
61710;BME280;47633;51.494;5.386;2022-07-10T02:53:31;102639.59;;;22.18;44.08
61710;BME280;47633;51.494;5.386;2022-07-10T02:55:56;102639.72;;;22.16;44.04
61710;BME280;47633;51.494;5.386;2022-07-10T02:58:22;102634.50;;;22.15;43.99
61710;BME280;47633;51.494;5.386;2022-07-10T03:00:47;102637.91;;;22.17;44.35
61710;BME280;47633;51.494;5.386;2022-07-10T03:03:12;102644.91;;;22.18;44.35
61710;BME280;47633;51.494;5.386;2022-07-10T03:05:38;102639.81;;;22.15;44.34
61710;BME280;47633;51.494;5.386;2022-07-10T03:08:03;102637.06;;;22.16;44.34
61710;BME280;47633;51.494;5.386;2022-07-10T03:10:29;102639.72;;;22.16;44.22
61710;BME280;47633;51.494;5.386;2022-07-10T03:12:54;102639.72;;;22.16;44.12
61710;BME280;47633;51.494;5.386;2022-07-10T03:15:19;102627.50;;;22.14;44.10
61710;BME280;47633;51.494;5.386;2022-07-10T03:17:45;102637.28;;;22.13;44.41
61710;BME280;47633;51.494;5.386;2022-07-10T03:20:10;102629.31;;;22.13;44.03
61710;BME280;47633;51.494;5.386;2022-07-10T03:22:36;102633.75;;;22.13;44.42
61710;BME280;47633;51.494;5.386;2022-07-10T03:25:02;102642.47;;;22.15;44.10
61710;BME280;47633;51.494;5.386;2022-07-10T03:27:27;102632.91;;;22.12;44.43
61710;BME280;47633;51.494;5.386;2022-07-10T03:29:53;102632.91;;;22.12;44.41
61710;BME280;47633;51.494;5.386;2022-07-10T03:32:18;102622.38;;;22.10;44.26
61710;BME280;47633;51.494;5.386;2022-07-10T03:34:43;102624.22;;;22.10;44.00
61710;BME280;47633;51.494;5.386;2022-07-10T03:37:09;102620.81;;;22.08;44.38
61710;BME280;47633;51.494;5.386;2022-07-10T03:39:34;102625.16;;;22.09;44.30
61710;BME280;47633;51.494;5.386;2022-07-10T03:41:59;102619.84;;;22.09;44.12
61710;BME280;47633;51.494;5.386;2022-07-10T03:44:25;102621.78;;;22.07;44.16
61710;BME280;47633;51.494;5.386;2022-07-10T03:46:50;102616.34;;;22.08;44.16
61710;BME280;47633;51.494;5.386;2022-07-10T03:49:15;102609.44;;;22.06;44.31
61710;BME280;47633;51.494;5.386;2022-07-10T03:51:41;102607.66;;;22.06;44.17
61710;BME280;47633;51.494;5.386;2022-07-10T03:54:06;102619.09;;;22.07;43.99
61710;BME280;47633;51.494;5.386;2022-07-10T03:56:32;102618.28;;;22.06;44.07
61710;BME280;47633;51.494;5.386;2022-07-10T03:59:15;102614.75;;;22.06;43.95
61710;BME280;47633;51.494;5.386;2022-07-10T04:01:41;102621.03;;;22.05;44.00
61710;BME280;47633;51.494;5.386;2022-07-10T04:04:06;102607.75;;;22.05;43.99
61710;BME280;47633;51.494;5.386;2022-07-10T04:06:31;102616.56;;;22.05;43.98
61710;BME280;47633;51.494;5.386;2022-07-10T04:08:57;102615.72;;;22.05;43.94
61710;BME280;47633;51.494;5.386;2022-07-10T04:11:22;102617.63;;;22.03;43.94
61710;BME280;47633;51.494;5.386;2022-07-10T04:13:47;102617.63;;;22.03;43.90
61710;BME280;47633;51.494;5.386;2022-07-10T04:16:12;102616.78;;;22.02;44.13
61710;BME280;47633;51.494;5.386;2022-07-10T04:18:41;102618.47;;;22.03;44.38
61710;BME280;47633;51.494;5.386;2022-07-10T04:21:10;102620.28;;;22.03;44.14
61710;BME280;47633;51.494;5.386;2022-07-10T04:23:35;102627.41;;;22.02;44.12
61710;BME280;47633;51.494;5.386;2022-07-10T04:26:01;102627.41;;;22.02;44.23
61710;BME280;47633;51.494;5.386;2022-07-10T04:28:26;102623.78;;;22.03;44.30
61710;BME280;47633;51.494;5.386;2022-07-10T04:30:52;102615.06;;;22.01;44.10
61710;BME280;47633;51.494;5.386;2022-07-10T04:33:17;102603.72;;;21.99;44.24
61710;BME280;47633;51.494;5.386;2022-07-10T04:35:42;102608.81;;;22.02;44.26
61710;BME280;47633;51.494;5.386;2022-07-10T04:38:07;102622.94;;;22.03;44.35
61710;BME280;47633;51.494;5.386;2022-07-10T04:40:33;102614.13;;;22.02;44.47
61710;BME280;47633;51.494;5.386;2022-07-10T04:42:58;102614.22;;;22.01;44.46
61710;BME280;47633;51.494;5.386;2022-07-10T04:45:24;102623.78;;;22.03;44.45
61710;BME280;47633;51.494;5.386;2022-07-10T04:47:49;102612.31;;;22.03;44.63
61710;BME280;47633;51.494;5.386;2022-07-10T04:50:14;102607.00;;;22.03;44.69
61710;BME280;47633;51.494;5.386;2022-07-10T04:52:40;102606.16;;;22.02;44.26
61710;BME280;47633;51.494;5.386;2022-07-10T04:55:05;102608.81;;;22.02;44.54
61710;BME280;47633;51.494;5.386;2022-07-10T04:57:31;102622.94;;;22.03;44.54
61710;BME280;47633;51.494;5.386;2022-07-10T04:59:56;102625.69;;;22.01;44.31
61710;BME280;47633;51.494;5.386;2022-07-10T05:02:22;102615.84;;;22.03;44.63
61710;BME280;47633;51.494;5.386;2022-07-10T05:04:47;102626.56;;;22.02;44.59
61710;BME280;47633;51.494;5.386;2022-07-10T05:07:13;102612.31;;;22.03;44.48
61710;BME280;47633;51.494;5.386;2022-07-10T05:09:39;102605.22;;;22.03;44.55
61710;BME280;47633;51.494;5.386;2022-07-10T05:12:05;102614.00;;;22.04;44.62
61710;BME280;47633;51.494;5.386;2022-07-10T05:14:31;102620.16;;;22.04;44.75
61710;BME280;47633;51.494;5.386;2022-07-10T05:16:56;102618.47;;;22.03;44.71
61710;BME280;47633;51.494;5.386;2022-07-10T05:19:21;102623.69;;;22.05;44.70
61710;BME280;47633;51.494;5.386;2022-07-10T05:21:46;102626.34;;;22.05;44.87
61710;BME280;47633;51.494;5.386;2022-07-10T05:24:12;102623.69;;;22.05;44.50
61710;BME280;47633;51.494;5.386;2022-07-10T05:26:37;102624.53;;;22.05;44.65
61710;BME280;47633;51.494;5.386;2022-07-10T05:29:02;102618.38;;;22.05;44.73
61710;BME280;47633;51.494;5.386;2022-07-10T05:31:28;102622.72;;;22.06;44.87
61710;BME280;47633;51.494;5.386;2022-07-10T05:33:53;102612.97;;;22.06;45.01
61710;BME280;47633;51.494;5.386;2022-07-10T05:36:18;102619.94;;;22.07;44.79
61710;BME280;47633;51.494;5.386;2022-07-10T05:38:44;102619.94;;;22.07;44.90
61710;BME280;47633;51.494;5.386;2022-07-10T05:41:09;102610.31;;;22.06;44.94
61710;BME280;47633;51.494;5.386;2022-07-10T05:43:34;102616.34;;;22.08;44.96
61710;BME280;47633;51.494;5.386;2022-07-10T05:46:00;102626.97;;;22.08;45.18
61710;BME280;47633;51.494;5.386;2022-07-10T05:48:25;102625.03;;;22.10;45.29
61710;BME280;47633;51.494;5.386;2022-07-10T05:50:50;102622.28;;;22.12;45.12
61710;BME280;47633;51.494;5.386;2022-07-10T05:53:16;102621.34;;;22.13;45.48
61710;BME280;47633;51.494;5.386;2022-07-10T05:55:46;102615.03;;;22.14;45.31
61710;BME280;47633;51.494;5.386;2022-07-10T05:58:11;102622.06;;;22.15;45.58
61710;BME280;47633;51.494;5.386;2022-07-10T06:00:37;102615.91;;;22.15;45.45
61710;BME280;47633;51.494;5.386;2022-07-10T06:03:02;102622.81;;;22.17;45.27
61710;BME280;47633;51.494;5.386;2022-07-10T06:05:28;102632.47;;;22.18;45.59
61710;BME280;47633;51.494;5.386;2022-07-10T06:07:53;102627.16;;;22.18;45.83
61710;BME280;47633;51.494;5.386;2022-07-10T06:10:19;102632.38;;;22.20;45.51
61710;BME280;47633;51.494;5.386;2022-07-10T06:12:44;102624.28;;;22.21;45.60
61710;BME280;47633;51.494;5.386;2022-07-10T06:15:10;102620.81;;;22.21;45.69
61710;BME280;47633;51.494;5.386;2022-07-10T06:17:35;102617.16;;;22.22;45.46
61710;BME280;47633;51.494;5.386;2022-07-10T06:20:00;102608.47;;;22.20;45.36
61710;BME280;47633;51.494;5.386;2022-07-10T06:22:26;102618.16;;;22.21;45.55
61710;BME280;47633;51.494;5.386;2022-07-10T06:25:03;102624.81;;;22.26;45.57
61710;BME280;47633;51.494;5.386;2022-07-10T06:27:29;102616.72;;;22.28;45.35
61710;BME280;47633;51.494;5.386;2022-07-10T06:29:55;102629.00;;;22.31;45.58
61710;BME280;47633;51.494;5.386;2022-07-10T06:32:21;102623.69;;;22.31;45.86
61710;BME280;47633;51.494;5.386;2022-07-10T06:34:47;102623.47;;;22.34;46.04
61710;BME280;47633;51.494;5.386;2022-07-10T06:37:12;102616.31;;;22.34;46.01
61710;BME280;47633;51.494;5.386;2022-07-10T06:39:38;102622.03;;;22.41;46.17
61710;BME280;47633;51.494;5.386;2022-07-10T06:42:04;102620.97;;;22.43;46.28
61710;BME280;47633;51.494;5.386;2022-07-10T06:44:30;102611.81;;;22.48;46.28
61710;BME280;47633;51.494;5.386;2022-07-10T06:46:56;102614.25;;;22.51;45.99
61710;BME280;47633;51.494;5.386;2022-07-10T06:49:40;102605.34;;;22.52;45.91
61710;BME280;47633;51.494;5.386;2022-07-10T06:52:06;102609.81;;;22.51;45.78
61710;BME280;47633;51.494;5.386;2022-07-10T06:54:32;102613.31;;;22.52;46.26
61710;BME280;47633;51.494;5.386;2022-07-10T06:56:58;102613.31;;;22.52;45.74
61710;BME280;47633;51.494;5.386;2022-07-10T06:59:23;102619.47;;;22.52;46.26
61710;BME280;47633;51.494;5.386;2022-07-10T07:01:49;102622.00;;;22.54;46.47
61710;BME280;47633;51.494;5.386;2022-07-10T07:11:57;102618.13;;;22.71;46.48
61710;BME280;47633;51.494;5.386;2022-07-10T07:14:23;102611.50;;;22.76;46.31
61710;BME280;47633;51.494;5.386;2022-07-10T07:16:49;102610.94;;;22.84;46.01
61710;BME280;47633;51.494;5.386;2022-07-10T07:19:26;102616.56;;;22.92;46.09
61710;BME280;47633;51.494;5.386;2022-07-10T07:22:17;102620.66;;;22.96;45.97
61710;BME280;47633;51.494;5.386;2022-07-10T07:25:01;102620.22;;;23.03;45.66
61710;BME280;47633;51.494;5.386;2022-07-10T07:27:26;102625.94;;;23.09;45.59
61710;BME280;47633;51.494;5.386;2022-07-10T07:29:52;102626.44;;;23.14;45.58
61710;BME280;47633;51.494;5.386;2022-07-10T07:32:17;102627.69;;;23.22;45.14
61710;BME280;47633;51.494;5.386;2022-07-10T07:34:42;102631.69;;;23.27;45.20
61710;BME280;47633;51.494;5.386;2022-07-10T07:37:07;102629.56;;;23.32;45.38
61710;BME280;47633;51.494;5.386;2022-07-10T07:39:33;102619.53;;;23.36;45.01
61710;BME280;47633;51.494;5.386;2022-07-10T07:41:58;102623.66;;;23.40;45.35
61710;BME280;47633;51.494;5.386;2022-07-10T07:44:24;102624.38;;;23.42;45.38
61710;BME280;47633;51.494;5.386;2022-07-10T07:46:49;102622.66;;;23.41;45.03
61710;BME280;47633;51.494;5.386;2022-07-10T07:49:17;102626.69;;;23.47;45.07
61710;BME280;47633;51.494;5.386;2022-07-10T07:51:43;102622.94;;;23.49;44.80
61710;BME280;47633;51.494;5.386;2022-07-10T07:54:08;102629.97;;;23.50;45.13
61710;BME280;47633;51.494;5.386;2022-07-10T07:56:33;102627.19;;;23.52;45.24
61710;BME280;47633;51.494;5.386;2022-07-10T07:59:01;102620.03;;;23.52;45.07
61710;BME280;47633;51.494;5.386;2022-07-10T08:01:27;102626.94;;;23.55;45.07
61710;BME280;47633;51.494;5.386;2022-07-10T08:03:52;102624.16;;;23.57;44.68
61710;BME280;47633;51.494;5.386;2022-07-10T08:06:17;102626.81;;;23.57;45.13
61710;BME280;47633;51.494;5.386;2022-07-10T08:08:43;102633.34;;;23.52;45.33
61710;BME280;47633;51.494;5.386;2022-07-10T08:11:09;102632.00;;;23.47;43.55
61710;BME280;47633;51.494;5.386;2022-07-10T08:13:34;102628.69;;;23.32;43.25
61710;BME280;47633;51.494;5.386;2022-07-10T08:16:03;102624.53;;;23.16;43.57
61710;BME280;47633;51.494;5.386;2022-07-10T08:18:28;102621.16;;;23.01;43.23
61710;BME280;47633;51.494;5.386;2022-07-10T08:20:56;102613.16;;;22.90;43.58
61710;BME280;47633;51.494;5.386;2022-07-10T08:23:21;102617.56;;;22.78;45.10
61710;BME280;47633;51.494;5.386;2022-07-10T08:25:49;102619.06;;;22.70;45.28
61710;BME280;47633;51.494;5.386;2022-07-10T08:28:15;102620.41;;;22.64;45.79
61710;BME280;47633;51.494;5.386;2022-07-10T08:30:40;102620.63;;;22.61;46.26
61710;BME280;47633;51.494;5.386;2022-07-10T08:33:07;102617.22;;;22.59;45.40
61710;BME280;47633;51.494;5.386;2022-07-10T08:35:32;102617.56;;;22.54;46.05
61710;BME280;47633;51.494;5.386;2022-07-10T08:38:03;102613.31;;;22.52;46.26
61710;BME280;47633;51.494;5.386;2022-07-10T08:40:34;102613.63;;;22.47;47.11
61710;BME280;47633;51.494;5.386;2022-07-10T08:43:01;102621.94;;;22.42;46.27
61710;BME280;47633;51.494;5.386;2022-07-10T08:45:27;102619.59;;;22.38;46.58
61710;BME280;47633;51.494;5.386;2022-07-10T08:47:56;102623.69;;;22.31;46.39
61710;BME280;47633;51.494;5.386;2022-07-10T08:50:24;102622.47;;;22.22;46.99
61710;BME280;47633;51.494;5.386;2022-07-10T08:52:52;102618.47;;;22.16;46.93
61710;BME280;47633;51.494;5.386;2022-07-10T08:55:24;102625.88;;;22.11;47.07
61710;BME280;47633;51.494;5.386;2022-07-10T08:57:51;102622.72;;;22.06;47.43
61710;BME280;47633;51.494;5.386;2022-07-10T09:00:16;102626.75;;;22.12;47.20
61710;BME280;47633;51.494;5.386;2022-07-10T09:02:42;102619.72;;;22.23;47.37
61710;BME280;47633;51.494;5.386;2022-07-10T09:05:07;102628.56;;;22.37;47.00
61710;BME280;47633;51.494;5.386;2022-07-10T09:07:37;102625.22;;;22.46;45.99
61710;BME280;47633;51.494;5.386;2022-07-10T09:10:07;102622.22;;;22.51;45.79
61710;BME280;47633;51.494;5.386;2022-07-10T09:12:57;102617.59;;;22.41;45.55
61710;BME280;47633;51.494;5.386;2022-07-10T09:15:28;102626.94;;;22.21;47.25
61710;BME280;47633;51.494;5.386;2022-07-10T09:17:58;102627.41;;;22.02;47.50
61710;BME280;47633;51.494;5.386;2022-07-10T09:20:34;102615.19;;;21.87;47.57
61710;BME280;47633;51.494;5.386;2022-07-10T09:23:15;102618.25;;;21.81;48.40
61710;BME280;47633;51.494;5.386;2022-07-10T09:25:45;102611.28;;;21.80;47.67
61710;BME280;47633;51.494;5.386;2022-07-10T09:28:13;102615.59;;;21.81;47.19
61710;BME280;47633;51.494;5.386;2022-07-10T09:30:40;102606.69;;;21.82;47.05
61710;BME280;47633;51.494;5.386;2022-07-10T09:41:30;102595.97;;;21.83;48.36
61710;BME280;47633;51.494;5.386;2022-07-10T09:44:00;102599.06;;;21.77;48.70
61710;BME280;47633;51.494;5.386;2022-07-10T09:46:32;102598.00;;;21.67;48.46
61710;BME280;47633;51.494;5.386;2022-07-10T09:49:14;102596.19;;;21.54;49.46
61710;BME280;47633;51.494;5.386;2022-07-10T09:51:41;102595.84;;;21.46;50.49
61710;BME280;47633;51.494;5.386;2022-07-10T09:54:08;102602.59;;;21.37;49.97
61710;BME280;47633;51.494;5.386;2022-07-10T09:56:45;102593.28;;;21.32;49.54
61710;BME280;47633;51.494;5.386;2022-07-10T09:59:18;102590.22;;;21.38;49.52
61710;BME280;47633;51.494;5.386;2022-07-10T10:01:49;102587.88;;;21.46;48.81
61710;BME280;47633;51.494;5.386;2022-07-10T10:04:16;102586.41;;;21.55;48.17
61710;BME280;47633;51.494;5.386;2022-07-10T10:06:46;102587.72;;;21.62;47.75
61710;BME280;47633;51.494;5.386;2022-07-10T10:09:33;102591.63;;;21.69;48.47
61710;BME280;47633;51.494;5.386;2022-07-10T10:12:39;102586.97;;;21.73;48.22
61710;BME280;47633;51.494;5.386;2022-07-10T10:15:02;102591.94;;;21.78;49.04
61710;BME280;47633;51.494;5.386;2022-07-10T10:17:28;102589.06;;;21.81;49.08
61710;BME280;47633;51.494;5.386;2022-07-10T10:19:54;102585.47;;;21.82;49.34
61710;BME280;47633;51.494;5.386;2022-07-10T10:22:40;102589.63;;;21.86;50.13
61710;BME280;47633;51.494;5.386;2022-07-10T10:25:06;102586.84;;;21.87;49.49
61710;BME280;47633;51.494;5.386;2022-07-10T10:27:32;102584.31;;;21.86;49.67
61710;BME280;47633;51.494;5.386;2022-07-10T10:29:58;102582.38;;;21.88;49.85
61710;BME280;47633;51.494;5.386;2022-07-10T10:32:24;102580.34;;;21.91;50.23
61710;BME280;47633;51.494;5.386;2022-07-10T10:34:52;102567.19;;;21.90;48.92
61710;BME280;47633;51.494;5.386;2022-07-10T10:39:56;102576.34;;;21.99;49.89
61710;BME280;47633;51.494;5.386;2022-07-10T10:42:38;102583.22;;;22.01;49.53
61710;BME280;47633;51.494;5.386;2022-07-10T10:48:07;102575.44;;;22.11;49.07
61710;BME280;47633;51.494;5.386;2022-07-10T10:50:45;102575.13;;;22.16;49.29
61710;BME280;47633;51.494;5.386;2022-07-10T10:58:27;102569.25;;;22.23;49.54
61710;BME280;47633;51.494;5.386;2022-07-10T11:06:42;102561.00;;;22.15;48.70
61710;BME280;47633;51.494;5.386;2022-07-10T11:14:31;102564.06;;;22.22;47.94
61710;BME280;47633;51.494;5.386;2022-07-10T11:16:57;102564.94;;;22.22;47.83
61710;BME280;47633;51.494;5.386;2022-07-10T11:19:24;102557.69;;;22.24;47.01
61710;BME280;47633;51.494;5.386;2022-07-10T11:21:58;102558.31;;;22.28;48.09
61710;BME280;47633;51.494;5.386;2022-07-10T11:24:48;102549.94;;;22.34;48.07
61710;BME280;47633;51.494;5.386;2022-07-10T11:27:36;102544.19;;;22.40;47.67
61710;BME280;47633;51.494;5.386;2022-07-10T11:30:07;102549.75;;;22.49;48.57
61710;BME280;47633;51.494;5.386;2022-07-10T11:32:33;102551.13;;;22.54;48.39
61710;BME280;47633;51.494;5.386;2022-07-10T11:34:59;102548.88;;;22.61;48.51
61710;BME280;47633;51.494;5.386;2022-07-10T11:37:25;102546.00;;;22.64;49.38
61710;BME280;47633;51.494;5.386;2022-07-10T11:40:10;102549.59;;;22.63;48.44
61710;BME280;47633;51.494;5.386;2022-07-10T11:42:59;102545.22;;;22.62;47.52
61710;BME280;47633;51.494;5.386;2022-07-10T11:45:33;102550.44;;;22.63;46.91
61710;BME280;47633;51.494;5.386;2022-07-10T11:48:03;102544.16;;;22.64;48.63
61710;BME280;47633;51.494;5.386;2022-07-10T11:50:35;102535.25;;;22.66;47.63
61710;BME280;47633;51.494;5.386;2022-07-10T11:53:01;102539.47;;;22.68;47.73
61710;BME280;47633;51.494;5.386;2022-07-10T11:55:39;102532.59;;;22.66;49.48
61710;BME280;47633;51.494;5.386;2022-07-10T11:58:21;102524.97;;;22.61;49.79
61710;BME280;47633;51.494;5.386;2022-07-10T12:00:58;102522.75;;;22.55;50.12
61710;BME280;47633;51.494;5.386;2022-07-10T12:03:24;102522.38;;;22.48;49.53
61710;BME280;47633;51.494;5.386;2022-07-10T12:05:51;102527.44;;;22.51;48.97
61710;BME280;47633;51.494;5.386;2022-07-10T12:08:16;102524.47;;;22.56;48.33
61710;BME280;47633;51.494;5.386;2022-07-10T12:10:42;102523.38;;;22.58;48.44
61710;BME280;47633;51.494;5.386;2022-07-10T12:13:12;102522.31;;;22.61;48.36
61710;BME280;47633;51.494;5.386;2022-07-10T12:15:42;102530.53;;;22.69;48.17
61710;BME280;47633;51.494;5.386;2022-07-10T12:18:11;102538.91;;;22.76;48.69
61710;BME280;47633;51.494;5.386;2022-07-10T12:20:40;102536.13;;;22.77;47.53
61710;BME280;47633;51.494;5.386;2022-07-10T12:23:10;102528.88;;;22.79;47.75
61710;BME280;47633;51.494;5.386;2022-07-10T12:25:37;102530.25;;;22.85;47.88
61710;BME280;47633;51.494;5.386;2022-07-10T12:28:02;102534.16;;;22.92;47.49
61710;BME280;47633;51.494;5.386;2022-07-10T12:30:47;102530.88;;;23.00;47.10
61710;BME280;47633;51.494;5.386;2022-07-10T12:33:19;102532.88;;;23.09;47.49
61710;BME280;47633;51.494;5.386;2022-07-10T12:35:47;102540.16;;;23.18;47.06
61710;BME280;47633;51.494;5.386;2022-07-10T12:38:20;102533.53;;;23.24;47.20
61710;BME280;47633;51.494;5.386;2022-07-10T12:40:46;102538.25;;;23.32;47.19
61710;BME280;47633;51.494;5.386;2022-07-10T12:43:12;102542.13;;;23.39;46.87
61710;BME280;47633;51.494;5.386;2022-07-10T12:45:38;102531.97;;;23.44;46.63
61710;BME280;47633;51.494;5.386;2022-07-10T12:48:06;102534.28;;;23.49;46.47
61710;BME280;47633;51.494;5.386;2022-07-10T12:50:35;102536.59;;;23.53;46.45
61710;BME280;47633;51.494;5.386;2022-07-10T12:53:10;102531.03;;;23.57;46.24
61710;BME280;47633;51.494;5.386;2022-07-10T12:55:44;102534.41;;;23.59;46.69
61710;BME280;47633;51.494;5.386;2022-07-10T12:58:11;102520.84;;;23.62;46.54
61710;BME280;47633;51.494;5.386;2022-07-10T13:00:50;102519.91;;;23.63;46.21
61710;BME280;47633;51.494;5.386;2022-07-10T13:03:20;102520.63;;;23.65;46.57
61710;BME280;47633;51.494;5.386;2022-07-10T13:05:49;102519.66;;;23.66;46.04
61710;BME280;47633;51.494;5.386;2022-07-10T13:08:17;102515.19;;;23.66;46.23
61710;BME280;47633;51.494;5.386;2022-07-10T13:10:54;102518.56;;;23.68;46.20
61710;BME280;47633;51.494;5.386;2022-07-10T13:13:23;102513.97;;;23.70;46.20
61710;BME280;47633;51.494;5.386;2022-07-10T13:15:49;102505.13;;;23.70;46.26
61710;BME280;47633;51.494;5.386;2022-07-10T13:18:26;102508.53;;;23.72;46.47
61710;BME280;47633;51.494;5.386;2022-07-10T13:20:55;102510.31;;;23.71;46.14
61710;BME280;47633;51.494;5.386;2022-07-10T13:23:23;102502.34;;;23.71;46.38
61710;BME280;47633;51.494;5.386;2022-07-10T13:25:49;102503.22;;;23.72;46.64
61710;BME280;47633;51.494;5.386;2022-07-10T13:28:15;102503.22;;;23.72;46.30
61710;BME280;47633;51.494;5.386;2022-07-10T13:30:41;102502.34;;;23.71;46.60